Time;durP1;ratioP1;P1;durP2;ratioP2;P2;SDS_P1;SDS_P2;PMS_P1;PMS_P2;Temp;Humidity;BMP_temperature;BMP_pressure;BME280_temperature;BME280_humidity;BME280_pressure;Samples;Min_cycle;Max_cycle;Signal;HPM_P1;HPM_P2
2023/02/11 00:00:44;;;;;;;46.35;25.10;;;;;;;;;;5122201;28;20273;-85
2023/02/11 00:03:12;;;;;;;45.60;23.38;;;;;;;;;;5122364;28;20233;-85
2023/02/11 00:05:38;;;;;;;48.58;23.38;;;2.50;1.00;;;;;;5122374;28;20202;-86
2023/02/11 00:08:06;;;;;;;52.53;24.17;;;;;;;;;;5112651;28;20735;-84
2023/02/11 00:10:34;;;;;;;44.65;25.52;;;2.90;99.90;;;;;;5103229;28;20622;-85
2023/02/11 00:13:01;;;;;;;51.70;23.90;;;;;;;;;;5103473;28;20575;-84
2023/02/11 00:15:28;;;;;;;41.10;22.98;;;2.60;1.00;;;;;;5103617;28;20222;-85
2023/02/11 00:17:55;;;;;;;42.50;22.48;;;;;;;;;;5106916;28;20237;-84
2023/02/11 00:20:22;;;;;;;42.40;23.00;;;2.70;1.00;;;;;;5114537;28;20270;-84
2023/02/11 00:22:48;;;;;;;44.58;23.15;;;2.60;1.00;;;;;;5118329;28;20233;-84
2023/02/11 00:25:15;;;;;;;41.13;23.17;;;3.30;1.00;;;;;;5113975;28;20229;-84
2023/02/11 00:27:43;;;;;;;37.60;22.45;;;2.90;99.90;;;;;;5109624;28;20638;-84
2023/02/11 00:30:11;;;;;;;42.38;22.60;;;2.90;99.90;;;;;;5109013;28;20232;-84
2023/02/11 00:32:38;;;;;;;42.35;21.98;;;;;;;;;;5109548;28;20206;-84
2023/02/11 00:35:05;;;;;;;49.33;25.23;;;;;;;;;;5108664;28;20235;-84
2023/02/11 00:37:35;;;;;;;40.60;22.98;;;;;;;;;;5108334;28;20198;-84
2023/02/11 00:40:02;;;;;;;44.47;24.27;;;;;;;;;;5108500;28;20236;-84
2023/02/11 00:42:29;;;;;;;49.35;24.60;;;3.10;1.00;;;;;;5116845;28;20189;-83
2023/02/11 00:44:57;;;;;;;42.38;24.00;;;;;;;;;;5108536;28;20244;-84
2023/02/11 00:47:24;;;;;;;44.83;25.35;;;;;;;;;;5106070;28;20244;-84
2023/02/11 00:49:51;;;;;;;43.13;24.00;;;;;;;;;;5108840;28;20285;-84
2023/02/11 00:52:18;;;;;;;39.58;23.05;;;3.10;1.00;;;;;;5110739;28;20316;-83
2023/02/11 00:54:45;;;;;;;46.67;22.52;;;;;;;;;;5110989;28;20576;-84
2023/02/11 00:57:12;;;;;;;47.28;23.20;;;;;;;;;;5114398;28;20208;-83
2023/02/11 00:59:40;;;;;;;47.30;23.55;;;;;;;;;;5115160;28;20289;-84
2023/02/11 01:02:08;;;;;;;38.95;22.60;;;3.10;99.90;;;;;;5113509;28;20206;-84
2023/02/11 01:04:35;;;;;;;40.65;21.70;;;;;;;;;;5117675;28;20293;-84
2023/02/11 01:07:02;;;;;;;46.20;22.15;;;;;;;;;;5116675;28;20206;-84
2023/02/11 01:09:29;;;;;;;39.60;23.60;;;3.50;1.00;;;;;;5112981;28;20787;-84
2023/02/11 01:11:56;;;;;;;44.47;22.33;;;;;;;;;;5109618;28;20265;-83
2023/02/11 01:14:23;;;;;;;45.90;23.55;;;;;;;;;;5113848;28;20213;-83
2023/02/11 01:16:50;;;;;;;50.63;23.95;;;;;;;;;;5118521;28;20193;-83
2023/02/11 01:19:18;;;;;;;41.63;23.75;;;3.10;99.90;;;;;;5113217;28;20775;-83
2023/02/11 01:21:45;;;;;;;47.92;24.55;;;;;;;;;;5110303;28;20297;-84
2023/02/11 01:24:13;;;;;;;41.85;24.35;;;;;;;;;;5109535;28;20209;-85
2023/02/11 01:26:39;;;;;;;44.75;24.60;;;2.70;18.20;;;;;;5110698;28;20202;-84
2023/02/11 01:29:08;;;;;;;36.72;21.90;;;3.10;29.80;;;;;;5111074;28;20591;-85
2023/02/11 01:31:35;;;;;;;43.85;24.10;;;;;;;;;;5110169;28;20270;-83
2023/02/11 01:34:02;;;;;;;48.42;23.83;;;;;;;;;;5110634;28;20288;-84
2023/02/11 01:36:30;;;;;;;36.45;22.02;;;;;;;;;;5111270;28;20212;-83
2023/02/11 01:38:58;;;;;;;33.60;21.30;;;;;;;;;;5110329;28;20226;-84
2023/02/11 01:41:25;;;;;;;40.80;21.58;;;;;;;;;;5111808;28;20225;-84
2023/02/11 01:43:52;;;;;;;43.53;21.20;;;;;;;;;;5112943;28;20265;-83
2023/02/11 01:46:33;;;;;;;37.33;23.70;;;3.40;99.90;;;;;;5112099;28;20284;-85
2023/02/11 01:49:05;;;;;;;41.15;22.63;;;3.20;1.00;;;;;;5110561;28;20252;-84
2023/02/11 01:51:38;;;;;;;40.83;22.10;;;3.20;1.00;;;;;;5108397;28;20223;-84
2023/02/11 01:59:45;;;;;;;38.90;21.80;;;3.20;1.00;;;;;;5105433;28;20259;-85
2023/02/11 02:02:15;;;;;;;42.28;24.48;;;3.30;1.00;;;;;;5105051;28;20197;-85
2023/02/11 02:04:55;;;;;;;39.20;23.17;;;3.30;1.00;;;;;;5106594;28;20204;-84
2023/02/11 02:07:30;;;;;;;34.38;20.38;;;3.30;1.00;;;;;;5105446;28;20206;-85
2023/02/11 02:10:01;;;;;;;38.65;21.15;;;3.40;1.00;;;;;;5104132;28;20634;-84
2023/02/11 02:12:28;;;;;;;70.80;26.20;;;3.10;99.90;;;;;;5105813;28;20277;-84
2023/02/11 02:15:18;;;;;;;45.00;22.73;;;3.50;1.00;;;;;;5104276;28;20312;-84
2023/02/11 02:18:01;;;;;;;41.33;21.13;;;3.50;1.00;;;;;;5104405;28;20510;-84
2023/02/11 02:21:07;;;;;;;37.80;22.00;;;3.50;1.00;;;;;;5104724;28;20186;-84
2023/02/11 02:23:50;;;;;;;38.85;21.48;;;3.60;1.00;;;;;;5085933;28;20232;-84
2023/02/11 02:26:38;;;;;;;43.70;23.58;;;3.60;1.00;;;;;;5105446;28;20182;-84
2023/02/11 02:29:33;;;;;;;48.72;23.67;;;3.80;99.90;;;;;;5103877;28;20284;-84
2023/02/11 02:32:39;;;;;;;37.47;22.65;;;3.60;99.90;;;;;;5103895;28;20193;-85
2023/02/11 02:35:19;;;;;;;44.63;23.98;;;3.70;1.00;;;;;;5045697;28;20211;-85
2023/02/11 02:37:55;;;;;;;40.45;22.88;;;3.70;1.00;;;;;;5109747;28;20308;-85
2023/02/11 02:40:26;;;;;;;43.95;22.75;;;3.90;99.90;;;;;;5106822;22;20236;-83
2023/02/11 02:42:56;;;;;;;36.15;21.48;;;3.70;1.00;;;;;;5082549;28;20194;-82
2023/02/11 02:45:23;;;;;;;42.53;25.73;;;3.80;99.90;;;;;;5087524;28;20205;-83
2023/02/11 02:47:51;;;;;;;44.15;21.73;;;3.80;1.00;;;;;;5091061;28;20266;-83
2023/02/11 02:50:26;;;;;;;39.15;23.75;;;3.90;1.00;;;;;;5082772;28;20742;-84
2023/02/11 02:53:06;;;;;;;41.67;24.30;;;3.60;99.90;;;;;;5089250;28;20250;-80
2023/02/11 02:55:50;;;;;;;36.85;22.55;;;3.90;1.00;;;;;;5097222;28;20210;-82
2023/02/11 02:58:57;;;;;;;39.17;21.40;;;3.80;11.20;;;;;;5087429;28;20246;-83
2023/02/11 03:01:34;;;;;;;38.30;23.13;;;4.20;99.90;;;;;;5081441;28;20327;-84
2023/02/11 03:04:12;;;;;;;41.70;25.02;;;3.90;93.30;;;;;;5088739;28;20253;-82
2023/02/11 03:06:48;;;;;;;41.45;24.33;;;4.00;1.00;;;;;;5081538;28;20183;-83
2023/02/11 03:09:18;;;;;;;43.45;24.88;;;3.90;99.90;;;;;;5082786;28;20312;-83
2023/02/11 03:11:45;;;;;;;39.97;22.20;;;3.90;99.90;;;;;;5082930;28;20190;-83
2023/02/11 03:14:17;;;;;;;44.17;24.83;;;4.00;99.90;;;;;;5081397;28;20209;-83
2023/02/11 03:16:45;;;;;;;39.20;25.60;;;4.40;1.00;;;;;;5082352;28;20190;-83
2023/02/11 03:19:18;;;;;;;40.17;23.95;;;4.00;99.90;;;;;;5082693;28;20226;-83
2023/02/11 03:21:48;;;;;;;41.00;23.83;;;4.10;1.00;;;;;;5081767;28;20195;-82
2023/02/11 03:24:20;;;;;;;45.80;23.10;;;4.40;1.00;;;;;;5078190;28;20186;-81
2023/02/11 03:26:51;;;;;;;42.60;24.55;;;4.10;99.90;;;;;;5085610;28;20721;-83
2023/02/11 03:29:31;;;;;;;38.95;24.00;;;4.10;99.90;;;;;;5077461;28;20222;-82
2023/02/11 03:32:04;;;;;;;43.72;23.85;;;4.10;99.90;;;;;;5095806;28;20173;-82
2023/02/11 03:34:40;;;;;;;43.50;25.92;;;3.80;1.00;;;;;;5098177;28;20229;-83
2023/02/11 03:37:12;;;;;;;40.92;26.25;;;4.40;1.00;;;;;;5096860;28;20198;-83
2023/02/11 03:39:43;;;;;;;45.05;25.75;;;4.10;7.00;;;;;;5096932;28;20290;-82
2023/02/11 03:42:12;;;;;;;38.58;23.55;;;4.20;1.00;;;;;;5089252;28;20182;-83
2023/02/11 03:44:46;;;;;;;42.08;25.10;;;4.20;1.00;;;;;;5082974;28;20229;-82
2023/02/11 03:47:15;;;;;;;44.90;24.25;;;4.50;85.10;;;;;;5082561;28;20191;-82
2023/02/11 03:49:46;;;;;;;43.45;27.13;;;4.10;99.90;;;;;;5082770;28;20222;-81
2023/02/11 03:52:15;;;;;;;41.20;24.50;;;4.00;96.80;;;;;;5082263;28;20186;-83
2023/02/11 03:54:45;;;;;;;43.20;24.77;;;4.00;1.00;;;;;;5082675;28;20266;-83
2023/02/11 03:57:12;;;;;;;41.55;25.00;;;;;;;;;;5085699;28;20265;-84
2023/02/11 03:59:54;;;;;;;42.17;23.65;;;3.90;99.90;;;;;;5085795;28;20353;-84
2023/02/11 04:02:23;;;;;;;45.67;25.65;;;4.10;1.00;;;;;;5087523;28;20213;-83
2023/02/11 04:04:51;;;;;;;46.65;25.60;;;4.00;1.00;;;;;;5095580;28;20213;-83
2023/02/11 04:07:18;;;;;;;40.38;24.27;;;3.70;99.90;;;;;;5095993;28;20209;-84
2023/02/11 04:09:45;;;;;;;47.65;26.73;;;;;;;;;;5095217;28;20246;-83
2023/02/11 04:12:12;;;;;;;45.15;26.63;;;;;;;;;;5095611;28;20210;-83
2023/02/11 04:14:39;;;;;;;55.30;26.95;;;4.10;99.90;;;;;;5095722;28;20266;-83
2023/02/11 04:17:06;;;;;;;48.05;26.38;;;;;;;;;;5087871;28;20313;-85
2023/02/11 04:19:33;;;;;;;57.97;30.40;;;;;;;;;;5084357;28;20229;-83
2023/02/11 04:22:02;;;;;;;51.42;27.63;;;4.40;99.90;;;;;;5084387;28;20206;-83
2023/02/11 04:24:29;;;;;;;41.75;24.83;;;4.20;1.00;;;;;;5091713;28;20194;-82
2023/02/11 04:26:56;;;;;;;49.75;28.48;;;;;;;;;;5090903;28;20293;-83
2023/02/11 04:29:23;;;;;;;50.67;29.85;;;4.10;1.00;;;;;;5086834;28;20219;-83
2023/02/11 04:31:50;;;;;;;46.97;26.08;;;;;;;;;;5086161;28;20270;-83
2023/02/11 04:34:17;;;;;;;53.47;29.20;;;;;;;;;;5086103;28;20289;-83
2023/02/11 04:36:44;;;;;;;50.17;28.23;;;4.40;1.00;;;;;;5085088;28;20222;-82
2023/02/11 04:39:12;;;;;;;45.67;27.15;;;4.50;99.90;;;;;;5085345;28;20258;-83
2023/02/11 04:41:39;;;;;;;48.50;29.98;;;4.90;1.00;;;;;;5087056;28;20215;-83
2023/02/11 04:44:06;;;;;;;56.92;29.67;;;;;;;;;;5085924;28;20203;-83
2023/02/11 04:46:34;;;;;;;54.95;32.05;;;;;;;;;;5086303;28;20338;-83
2023/02/11 04:49:01;;;;;;;50.78;27.98;;;;;;;;;;5086968;28;20227;-84
2023/02/11 04:51:28;;;;;;;56.60;28.02;;;;;;;;;;5086731;28;20210;-83
2023/02/11 04:53:55;;;;;;;52.88;28.73;;;4.90;99.90;;;;;;5086502;28;20265;-84
2023/02/11 04:56:23;;;;;;;49.75;29.13;;;4.50;94.70;;;;;;5086827;28;20272;-84
2023/02/11 04:58:50;;;;;;;54.70;29.02;;;;;;;;;;5088831;28;20227;-84
2023/02/11 05:01:17;;;;;;;52.95;28.13;;;4.40;1.00;;;;;;5088659;28;20743;-83
2023/02/11 05:03:44;;;;;;;60.45;29.38;;;4.90;1.00;;;;;;5087477;28;20206;-85
2023/02/11 05:06:11;;;;;;;59.17;28.92;;;5.10;99.90;;;;;;5087130;28;20237;-84
2023/02/11 05:08:38;;;;;;;51.90;29.08;;;;;;;;;;5090971;28;20250;-84
2023/02/11 05:11:07;;;;;;;48.90;29.50;;;4.60;99.90;;;;;;5095622;28;20241;-83
2023/02/11 05:13:35;;;;;;;58.78;30.38;;;4.60;99.90;;;;;;5094519;28;20206;-83
2023/02/11 05:16:02;;;;;;;60.20;31.92;;;;;;;;;;5089587;28;20222;-83
2023/02/11 05:18:29;;;;;;;63.10;35.30;;;4.10;1.00;;;;;;5089120;28;20652;-83
2023/02/11 05:20:56;;;;;;;62.67;33.78;;;;;;;;;;5092716;28;20278;-83
2023/02/11 05:23:23;;;;;;;61.25;31.95;;;;;;;;;;5092846;28;20208;-83
2023/02/11 05:25:51;;;;;;;65.13;33.60;;;;;;;;;;5092169;28;20266;-82
2023/02/11 05:28:18;;;;;;;63.13;33.30;;;;;;;;;;5096814;28;20285;-83
2023/02/11 05:30:46;;;;;;;61.70;33.13;;;4.60;99.90;;;;;;5096965;28;20289;-81
2023/02/11 05:33:13;;;;;;;57.40;34.13;;;4.50;1.00;;;;;;5096959;28;20237;-81
2023/02/11 05:35:39;;;;;;;71.63;36.17;;;4.30;1.00;;;;;;5098291;28;20213;-81
2023/02/11 05:38:07;;;;;;;66.78;32.50;;;;;;;;;;5098602;28;20202;-83
2023/02/11 05:40:34;;;;;;;56.13;31.13;;;;;;;;;;5089583;28;20290;-83
2023/02/11 05:43:01;;;;;;;57.38;33.05;;;;;;;;;;5086746;28;20233;-84
2023/02/11 05:45:28;;;;;;;67.60;32.72;;;;;;;;;;5080956;28;20205;-84
2023/02/11 05:47:57;;;;;;;55.88;32.28;;;4.20;27.40;;;;;;5084482;28;20231;-83
2023/02/11 05:50:24;;;;;;;58.50;32.03;;;;;;;;;;5085450;28;20305;-84
2023/02/11 05:52:51;;;;;;;56.60;32.15;;;;;;;;;;5088532;28;20203;-84
2023/02/11 05:55:18;;;;;;;53.58;31.33;;;;;;;;;;5087652;28;20324;-84
2023/02/11 05:57:46;;;;;;;58.45;30.25;;;;;;;;;;5087658;28;20266;-84
2023/02/11 06:00:14;;;;;;;57.00;36.25;;;4.60;1.00;;;;;;5088437;28;20233;-83
2023/02/11 06:02:41;;;;;;;60.65;33.10;;;;;;;;;;5081379;28;20209;-85
2023/02/11 06:05:10;;;;;;;69.28;34.63;;;4.60;1.00;;;;;;5096692;28;20262;-82
2023/02/11 06:07:37;;;;;;;51.05;31.65;;;;;;;;;;5095513;28;20234;-83
2023/02/11 06:10:04;;;;;;;57.45;31.80;;;;;;;;;;5090189;28;20222;-83
2023/02/11 06:12:31;;;;;;;68.38;34.55;;;;;;;;;;5087006;28;20265;-83
2023/02/11 06:14:58;;;;;;;59.00;33.35;;;4.60;99.90;;;;;;5085996;28;20202;-83
2023/02/11 06:17:25;;;;;;;63.38;33.95;;;;;;;;;;5088300;28;20273;-83
2023/02/11 06:19:52;;;;;;;55.10;31.38;;;;;;;;;;5089619;28;20227;-83
2023/02/11 06:22:21;;;;;;;65.28;36.58;;;4.70;99.90;;;;;;5089631;28;20202;-84
2023/02/11 06:24:48;;;;;;;54.40;31.33;;;;;;;;;;5091727;28;20230;-83
2023/02/11 06:27:16;;;;;;;62.83;34.88;;;;;;;;;;5090124;28;20241;-83
2023/02/11 06:29:43;;;;;;;78.70;36.03;;;5.10;1.00;;;;;;5086432;28;20226;-84
2023/02/11 06:32:10;;;;;;;55.58;34.50;;;;;;;;;;5086394;28;20576;-84
2023/02/11 06:34:38;;;;;;;63.25;34.15;;;5.10;1.00;;;;;;5086242;28;20233;-84
2023/02/11 06:37:05;;;;;;;60.88;33.25;;;4.90;99.90;;;;;;5088404;28;20223;-83
2023/02/11 06:39:33;;;;;;;64.38;32.58;;;4.90;99.90;;;;;;5085603;28;20237;-83
2023/02/11 06:42:00;;;;;;;60.72;34.85;;;5.10;1.00;;;;;;5085845;28;20266;-83
2023/02/11 06:44:27;;;;;;;56.10;34.13;;;;;;;;;;5086041;28;20325;-83
2023/02/11 06:46:54;;;;;;;61.40;35.60;;;;;;;;;;5086266;28;20202;-84
2023/02/11 06:49:21;;;;;;;77.70;35.80;;;;;;;;;;5096403;28;20202;-81
2023/02/11 06:51:48;;;;;;;61.13;34.15;;;5.10;1.00;;;;;;5098736;28;20179;-82
2023/02/11 06:54:15;;;;;;;72.50;33.22;;;;;;;;;;5092399;28;20289;-83
2023/02/11 06:56:43;;;;;;;69.57;35.35;;;5.30;1.00;;;;;;5089480;28;20222;-83
2023/02/11 06:59:15;;;;;;;71.32;35.58;;;4.90;99.90;;;;;;5091878;28;20229;-84
2023/02/11 07:01:42;;;;;;;72.63;35.72;;;;;;;;;;5091561;28;20218;-84
2023/02/11 07:04:10;;;;;;;65.78;34.90;;;;;;;;;;5084715;28;20251;-84
2023/02/11 07:06:37;;;;;;;73.18;35.88;;;;;;;;;;5083756;28;20209;-83
2023/02/11 07:09:04;;;;;;;68.47;35.70;;;5.00;99.90;;;;;;5083729;28;20219;-84
2023/02/11 07:11:32;;;;;;;67.10;33.40;;;;;;;;;;5085500;28;20226;-81
2023/02/11 07:14:04;;;;;;;63.92;35.67;;;4.90;99.90;;;;;;5095567;28;20230;-82
2023/02/11 07:16:31;;;;;;;73.90;34.55;;;4.90;1.00;;;;;;5097277;28;20228;-82
2023/02/11 07:18:58;;;;;;;61.50;33.83;;;;;;;;;;5096329;28;20275;-82
2023/02/11 07:21:25;;;;;;;69.72;36.47;;;;;;;;;;5090760;28;20226;-83
2023/02/11 07:23:52;;;;;;;64.90;38.00;;;;;;;;;;5080456;28;20257;-84
2023/02/11 07:26:21;;;;;;;73.50;35.60;;;5.00;1.00;;;;;;5078079;28;20202;-83
2023/02/11 07:28:50;;;;;;;80.95;37.85;;;5.30;1.00;;;;;;5080070;28;20230;-83
2023/02/11 07:31:20;;;;;;;73.78;39.22;;;5.00;1.00;;;;;;5080440;28;20260;-83
2023/02/11 07:33:47;;;;;;;72.07;36.22;;;;;;;;;;5080368;28;20210;-83
2023/02/11 07:36:15;;;;;;;75.38;37.60;;;5.10;1.00;;;;;;5081878;28;20291;-83
2023/02/11 07:38:43;;;;;;;66.22;36.45;;;5.40;1.00;;;;;;5081195;28;20245;-83
2023/02/11 07:41:12;;;;;;;72.45;36.35;;;5.10;1.00;;;;;;5081910;28;20187;-83
2023/02/11 07:43:40;;;;;;;70.63;36.35;;;5.20;1.00;;;;;;5082750;28;20696;-84
2023/02/11 07:46:09;;;;;;;67.95;33.95;;;5.20;1.00;;;;;;5082029;28;20669;-83
2023/02/11 07:48:37;;;;;;;69.18;36.67;;;5.30;1.00;;;;;;5081587;28;20226;-84
2023/02/11 07:51:09;;;;;;;76.25;35.10;;;5.30;1.00;;;;;;5083315;28;20232;-83
2023/02/11 07:53:36;;;;;;;67.40;33.83;;;5.40;1.00;;;;;;5078483;28;20545;-82
2023/02/11 07:56:03;;;;;;;73.22;35.28;;;;;;;;;;5078669;28;20586;-82
2023/02/11 07:58:30;;;;;;;64.88;35.10;;;5.80;1.00;;;;;;5080486;28;20297;-82
2023/02/11 08:01:02;;;;;;;61.95;34.40;;;5.10;1.00;;;;;;5082947;28;20267;-82
2023/02/11 08:03:28;;;;;;;77.03;36.67;;;5.40;1.00;;;;;;5083299;28;20195;-82
2023/02/11 08:05:57;;;;;;;66.47;35.60;;;5.20;1.00;;;;;;5084202;28;20209;-83
2023/02/11 08:08:26;;;;;;;56.17;33.45;;;5.60;1.00;;;;;;5084567;28;20293;-83
2023/02/11 08:10:53;;;;;;;67.22;35.33;;;5.80;1.00;;;;;;5090018;28;20186;-82
2023/02/11 08:13:20;;;;;;;67.00;34.63;;;5.30;1.00;;;;;;5094557;28;20234;-83
2023/02/11 08:15:47;;;;;;;66.38;35.38;;;;;;;;;;5087795;28;20286;-85
2023/02/11 08:18:14;;;;;;;71.07;34.58;;;;;;;;;;5087343;28;20198;-84
2023/02/11 08:20:41;;;;;;;74.40;37.88;;;;;;;;;;5086042;28;20206;-84
2023/02/11 08:23:09;;;;;;;71.18;34.22;;;5.60;1.00;;;;;;5087324;28;20203;-84
2023/02/11 08:25:36;;;;;;;67.13;34.45;;;;;;;;;;5087173;28;20234;-84
2023/02/11 08:28:04;;;;;;;66.40;33.60;;;;;;;;;;5088582;28;20237;-84
2023/02/11 08:30:30;;;;;;;71.82;34.63;;;6.00;1.00;;;;;;5089088;28;20226;-84
2023/02/11 08:32:57;;;;;;;64.38;34.53;;;5.40;1.00;;;;;;5088895;28;20207;-83
2023/02/11 08:35:25;;;;;;;64.72;33.70;;;;;;;;;;5086828;28;20237;-83
2023/02/11 08:37:52;;;;;;;65.72;33.80;;;;;;;;;;5086607;28;20281;-82
2023/02/11 08:40:20;;;;;;;64.25;34.08;;;5.70;1.00;;;;;;5127112;22;20341;-84
2023/02/11 08:42:47;;;;;;;69.75;34.47;;;6.10;1.00;;;;;;5109791;28;20293;-84
2023/02/11 08:45:14;;;;;;;60.38;30.95;;;6.00;1.00;;;;;;5104780;28;20202;-83
2023/02/11 08:47:41;;;;;;;64.47;34.05;;;;;;;;;;5108027;28;20205;-83
2023/02/11 08:50:08;;;;;;;59.42;31.15;;;5.80;1.00;;;;;;5105946;28;20313;-84
2023/02/11 08:52:36;;;;;;;56.83;31.88;;;5.90;1.00;;;;;;5106669;28;20208;-84
2023/02/11 08:55:03;;;;;;;62.83;33.75;;;;;;;;;;5105938;28;20284;-83
2023/02/11 08:57:31;;;;;;;65.28;32.75;;;5.90;1.00;;;;;;5105707;28;20229;-84
2023/02/11 08:59:59;;;;;;;72.70;34.42;;;5.80;1.00;;;;;;5108130;28;20286;-84
2023/02/11 09:02:26;;;;;;;69.00;32.78;;;5.80;1.00;;;;;;5107863;28;20209;-84
2023/02/11 09:04:52;;;;;;;67.25;35.35;;;6.10;1.00;;;;;;5105300;28;20255;-83
2023/02/11 09:07:20;;;;;;;63.40;34.13;;;;;;;;;;5110465;28;20679;-83
2023/02/11 09:09:47;;;;;;;58.85;32.08;;;;;;;;;;5115424;28;20248;-83
2023/02/11 09:12:14;;;;;;;60.85;32.50;;;;;;;;;;5116212;28;20205;-83
2023/02/11 09:14:42;;;;;;;64.50;31.92;;;;;;;;;;5118286;28;20213;-83
2023/02/11 09:17:10;;;;;;;59.28;33.92;;;;;;;;;;5112022;28;20226;-83
2023/02/11 09:19:37;;;;;;;58.92;30.95;;;;;;;;;;5094995;28;20221;-83
2023/02/11 09:22:04;;;;;;;62.20;33.55;;;;;;;;;;5114847;28;20273;-83
2023/02/11 09:24:31;;;;;;;62.67;33.92;;;;;;;;;;5107538;28;20265;-83
2023/02/11 09:26:58;;;;;;;80.75;38.70;;;;;;;;;;5106256;28;20194;-83
2023/02/11 09:29:25;;;;;;;86.70;43.08;;;6.40;1.00;;;;;;5107918;28;20253;-83
2023/02/11 09:31:53;;;;;;;60.35;33.28;;;6.20;1.00;;;;;;5105049;28;20209;-84
2023/02/11 09:34:20;;;;;;;55.83;30.40;;;6.50;1.00;;;;;;5115689;28;20265;-83
2023/02/11 09:36:47;;;;;;;60.05;34.67;;;6.00;1.00;;;;;;5117420;28;20281;-83
2023/02/11 09:39:15;;;;;;;58.30;31.10;;;6.20;1.00;;;;;;5118775;28;20237;-82
2023/02/11 09:42:08;;;;;;;58.25;30.98;;;6.20;1.00;;;;;;5120122;28;20198;-82
2023/02/11 09:44:37;;;;;;;59.20;31.55;;;5.90;1.00;;;;;;5097262;28;20190;-82
2023/02/11 09:47:13;;;;;;;58.00;27.52;;;6.20;1.00;;;;;;5108746;28;20236;-84
2023/02/11 09:49:44;;;;;;;54.42;30.08;;;6.30;1.00;;;;;;5103467;28;20228;-83
2023/02/11 09:52:16;;;;;;;57.33;30.48;;;6.20;1.00;;;;;;5105563;28;20194;-84
2023/02/11 09:54:53;;;;;;;53.85;30.67;;;6.30;1.00;;;;;;5105689;28;20186;-83
2023/02/11 09:57:20;;;;;;;51.85;29.00;;;;;;;;;;5101364;28;20212;-83
2023/02/11 09:59:48;;;;;;;56.75;29.10;;;6.80;1.00;;;;;;5103441;28;20313;-84
2023/02/11 10:02:24;;;;;;;51.88;30.55;;;6.60;1.00;;;;;;5102615;28;20236;-84
2023/02/11 10:05:13;;;;;;;61.63;31.30;;;6.70;1.00;;;;;;5114205;28;20253;-82
2023/02/11 10:07:48;;;;;;;54.67;28.02;;;6.40;1.00;;;;;;5119292;28;20178;-83
2023/02/11 10:10:28;;;;;;;54.60;29.98;;;6.90;1.00;;;;;;5102789;28;20596;-84
2023/02/11 10:13:15;;;;;;;51.33;27.88;;;6.50;1.00;;;;;;5099846;28;20206;-83
2023/02/11 10:15:47;;;;;;;54.10;28.55;;;6.40;1.00;;;;;;5098904;28;20221;-84
2023/02/11 10:18:38;;;;;;;59.88;28.50;;;6.50;1.00;;;;;;5102482;28;20206;-83
2023/02/11 10:21:16;;;;;;;45.25;26.98;;;6.60;1.00;;;;;;5102245;28;20221;-84
2023/02/11 10:23:48;;;;;;;54.28;27.00;;;6.50;1.00;;;;;;5105315;28;20602;-83
2023/02/11 10:26:17;;;;;;;54.70;29.63;;;6.50;1.00;;;;;;5103922;28;20196;-83
2023/02/11 10:28:47;;;;;;;56.80;30.15;;;6.20;8.60;;;;;;5103760;28;20638;-83
2023/02/11 10:31:19;;;;;;;57.53;30.30;;;6.40;1.00;;;;;;5101617;28;20191;-83
2023/02/11 10:33:53;;;;;;;53.03;27.67;;;6.40;1.00;;;;;;5101104;28;20270;-83
2023/02/11 10:36:23;;;;;;;52.58;28.63;;;6.40;1.00;;;;;;5100852;28;20628;-83
2023/02/11 10:38:50;;;;;;;58.08;30.60;;;;;;;;;;5102676;28;20221;-83
2023/02/11 10:41:21;;;;;;;56.85;29.67;;;6.40;1.00;;;;;;5109780;28;20211;-84
2023/02/11 10:43:49;;;;;;;54.33;28.48;;;6.40;1.00;;;;;;5110539;28;20217;-83
2023/02/11 10:46:19;;;;;;;54.05;29.90;;;6.40;1.00;;;;;;5103871;28;20240;-84
2023/02/11 10:48:50;;;;;;;57.53;29.70;;;6.70;99.90;;;;;;5109818;28;20232;-83
2023/02/11 10:51:20;;;;;;;54.75;28.10;;;6.40;15.50;;;;;;5113511;28;20197;-83
2023/02/11 10:53:48;;;;;;;49.28;29.20;;;6.40;27.20;;;;;;5109586;28;20269;-83
2023/02/11 10:56:23;;;;;;;57.28;32.25;;;6.40;29.00;;;;;;5116716;28;20249;-82
2023/02/11 10:58:59;;;;;;;55.08;31.70;;;6.40;62.20;;;;;;5117784;28;20205;-81
2023/02/11 11:01:43;;;;;;;51.00;28.30;;;6.40;88.10;;;;;;5109434;28;20273;-83
2023/02/11 11:04:34;;;;;;;47.22;27.95;;;6.40;99.90;;;;;;5108423;28;20182;-85
2023/02/11 11:07:13;;;;;;;46.65;27.20;;;6.40;99.90;;;;;;5111706;28;20246;-83
2023/02/11 11:09:45;;;;;;;65.57;31.52;;;6.40;99.90;;;;;;5111454;28;20249;-84
2023/02/11 11:12:25;;;;;;;50.70;28.42;;;6.40;99.90;;;;;;5107590;28;20273;-84
2023/02/11 11:14:55;;;;;;;49.08;28.38;;;6.40;99.90;;;;;;5113316;28;20186;-83
2023/02/11 11:17:22;;;;;;;52.42;29.00;;;;;;;;;;5108954;28;20313;-84
2023/02/11 11:19:50;;;;;;;58.92;28.55;;;6.40;99.90;;;;;;5104401;28;20218;-83
2023/02/11 11:22:21;;;;;;;57.38;28.48;;;6.40;99.90;;;;;;5105734;28;20202;-83
2023/02/11 11:24:53;;;;;;;53.08;29.88;;;6.40;99.90;;;;;;5103230;28;20327;-83
2023/02/11 11:27:23;;;;;;;48.80;30.60;;;6.40;99.90;;;;;;5105888;28;20187;-83
2023/02/11 11:29:53;;;;;;;50.83;28.38;;;6.80;99.90;;;;;;5107002;28;20315;-83
2023/02/11 11:32:23;;;;;;;42.78;28.25;;;6.50;99.90;;;;;;5102173;28;20201;-84
2023/02/11 11:34:55;;;;;;;40.95;27.63;;;6.50;99.90;;;;;;5102453;28;20205;-84
2023/02/11 11:37:26;;;;;;;53.45;27.00;;;6.50;99.90;;;;;;5107150;28;20203;-84
2023/02/11 11:39:57;;;;;;;54.92;27.60;;;6.50;99.90;;;;;;5107605;28;20634;-84
2023/02/11 11:42:29;;;;;;;45.67;25.23;;;6.50;99.90;;;;;;5107596;28;20217;-84
2023/02/11 11:45:01;;;;;;;48.22;28.00;;;6.50;99.90;;;;;;5106498;28;20240;-83
2023/02/11 11:47:34;;;;;;;45.00;27.35;;;6.50;99.90;;;;;;5106141;28;20276;-83
2023/02/11 11:50:25;;;;;;;43.42;25.25;;;6.50;99.90;;;;;;5108186;28;20221;-84
2023/02/11 11:53:00;;;;;;;46.60;25.70;;;6.60;99.90;;;;;;5109061;28;20250;-83
2023/02/11 11:55:33;;;;;;;51.10;25.92;;;6.60;99.90;;;;;;5106019;28;20186;-83
2023/02/11 11:58:00;;;;;;;51.05;25.63;;;6.90;99.90;;;;;;5106722;28;20269;-83
2023/02/11 12:00:33;;;;;;;47.13;24.05;;;6.60;99.90;;;;;;5108279;28;20222;-83
2023/02/11 12:03:30;;;;;;;48.75;25.15;;;6.60;99.90;;;;;;5113678;28;20217;-83
2023/02/11 12:06:13;;;;;;;44.60;25.38;;;6.70;99.90;;;;;;5087867;28;20208;-84
2023/02/11 12:08:48;;;;;;;46.33;23.00;;;6.70;99.90;;;;;;5106813;28;20237;-84
2023/02/11 12:11:23;;;;;;;43.78;25.30;;;6.70;99.90;;;;;;5107099;28;20284;-84
2023/02/11 12:14:05;;;;;;;41.15;23.15;;;6.70;99.90;;;;;;5106505;28;20296;-83
2023/02/11 12:16:42;;;;;;;47.35;25.40;;;6.70;99.90;;;;;;5107599;28;20190;-83
2023/02/11 12:19:39;;;;;;;49.75;24.77;;;6.70;99.90;;;;;;5104155;28;20235;-83
2023/02/11 12:22:11;;;;;;;43.00;23.30;;;6.80;99.90;;;;;;5104162;28;20281;-84
2023/02/11 12:25:05;;;;;;;40.92;23.52;;;6.80;99.90;;;;;;5105565;28;20270;-84
2023/02/11 12:27:47;;;;;;;37.30;22.40;;;6.90;99.90;;;;;;5105751;28;20213;-84
2023/02/11 12:30:24;;;;;;;41.50;20.90;;;6.90;99.90;;;;;;5109138;28;20222;-83
2023/02/11 12:33:03;;;;;;;34.70;20.42;;;6.80;99.90;;;;;;5109075;28;20196;-84
2023/02/11 12:35:42;;;;;;;35.78;21.08;;;6.80;99.90;;;;;;5106939;28;20321;-83
2023/02/11 12:38:27;;;;;;;36.10;21.60;;;7.20;99.90;;;;;;5106887;28;20241;-83
2023/02/11 12:41:06;;;;;;;42.53;21.35;;;6.80;99.90;;;;;;5106341;28;20237;-84
2023/02/11 12:43:35;;;;;;;40.63;20.52;;;6.70;99.90;;;;;;5108995;28;20224;-85
2023/02/11 12:46:22;;;;;;;33.00;21.25;;;6.80;99.90;;;;;;5109108;28;20202;-84
2023/02/11 12:49:27;;;;;;;38.60;21.42;;;6.90;99.90;;;;;;5109785;28;20212;-84
2023/02/11 12:52:19;;;;;;;36.03;20.00;;;7.00;99.90;;;;;;5070909;28;20210;-84
2023/02/11 12:54:54;;;;;;;33.65;19.42;;;7.00;99.90;;;;;;5111347;28;20269;-83
2023/02/11 12:57:24;;;;;;;37.17;20.27;;;7.00;99.90;;;;;;5108132;28;20205;-85
2023/02/11 12:59:58;;;;;;;34.67;20.63;;;7.10;99.90;;;;;;5106502;28;20233;-85
2023/02/11 13:02:30;;;;;;;34.53;19.42;;;;;;;;;;5108143;28;20501;-84
2023/02/11 13:05:01;;;;;;;36.10;19.67;;;7.50;99.90;;;;;;5110107;28;20170;-83
2023/02/11 13:07:33;;;;;;;39.95;21.33;;;7.10;99.90;;;;;;5110077;28;20206;-84
2023/02/11 13:10:06;;;;;;;36.10;20.10;;;7.10;99.90;;;;;;5106341;28;20249;-85
2023/02/11 13:15:20;;;;;;;36.63;21.35;;;;;;;;;;5106771;28;20189;-84
2023/02/11 13:17:57;;;;;;;30.08;18.83;;;7.10;99.90;;;;;;5106523;28;20226;-84
2023/02/11 13:20:34;;;;;;;31.38;18.52;;;7.20;99.90;;;;;;5112481;28;20646;-83
2023/02/11 13:23:11;;;;;;;39.58;19.48;;;7.20;99.90;;;;;;5117560;28;20200;-83
2023/02/11 13:25:46;;;;;;;31.65;20.42;;;7.20;99.90;;;;;;5120149;28;20241;-84
2023/02/11 13:28:35;;;;;;;38.55;20.30;;;7.10;99.90;;;;;;5110687;28;20193;-85
2023/02/11 13:31:05;;;;;;;26.80;18.10;;;7.10;99.90;;;;;;5118597;28;20225;-84
2023/02/11 13:33:35;;;;;;;28.00;17.98;;;7.10;99.90;;;;;;5118640;28;20178;-84
2023/02/11 13:36:20;;;;;;;31.97;20.53;;;7.10;99.90;;;;;;5116703;28;20205;-84
2023/02/11 13:38:56;;;;;;;29.35;18.30;;;7.10;99.90;;;;;;5104110;28;20487;-83